Time;durP1;ratioP1;P1;durP2;ratioP2;P2;SDS_P1;SDS_P2;PMS_P1;PMS_P2;Temp;Humidity;BMP_temperature;BMP_pressure;BME280_temperature;BME280_humidity;BME280_pressure;Samples;Min_cycle;Max_cycle;Signal;HPM_P1;HPM_P2
2023/08/13 00:01:58;;;;;;;3.72;3.00;;;24.60;67.00;25.20;100949.00;;;;5008761;28;20279;-58
2023/08/13 00:04:23;;;;;;;3.95;3.00;;;24.60;67.10;25.20;100945.00;;;;5008740;28;20172;-58
2023/08/13 00:06:49;;;;;;;4.50;3.13;;;24.60;67.10;25.20;100949.00;;;;5007240;28;20184;-58
2023/08/13 00:09:15;;;;;;;4.18;3.10;;;24.60;67.10;25.20;100950.00;;;;5008717;28;20217;-58
2023/08/13 00:11:41;;;;;;;3.92;3.30;;;24.50;67.10;25.20;100940.00;;;;5008205;28;20279;-57
2023/08/13 00:14:06;;;;;;;3.55;3.15;;;24.60;67.20;25.20;100935.00;;;;5008552;28;20187;-58
2023/08/13 00:16:32;;;;;;;3.88;3.40;;;24.50;67.20;25.10;100930.00;;;;5008408;28;20234;-57
2023/08/13 00:18:58;;;;;;;6.38;3.42;;;24.50;67.20;25.10;100945.00;;;;5008469;28;20346;-58
2023/08/13 00:21:24;;;;;;;7.57;3.60;;;24.50;67.40;25.10;100947.00;;;;5008353;28;20211;-58
2023/08/13 00:23:50;;;;;;;6.55;3.42;;;24.50;67.40;25.10;100938.00;;;;5008481;28;20735;-58
2023/08/13 00:26:15;;;;;;;9.20;3.88;;;24.50;67.30;25.10;100935.00;;;;5008750;28;20179;-58
2023/08/13 00:28:41;;;;;;;3.90;3.47;;;24.50;67.50;25.10;100938.00;;;;5008395;28;20183;-57
2023/08/13 00:31:07;;;;;;;4.70;3.88;;;24.40;67.40;25.00;100937.00;;;;5007902;28;20239;-57
2023/08/13 00:33:33;;;;;;;4.25;3.72;;;24.40;67.60;25.00;100942.00;;;;5008382;28;20214;-57
2023/08/13 00:35:58;;;;;;;4.35;3.63;;;24.40;67.70;25.00;100943.00;;;;5008326;28;20870;-57
2023/08/13 00:38:24;;;;;;;4.43;3.58;;;24.40;67.60;25.00;100942.00;;;;5008494;28;20176;-57
2023/08/13 00:40:50;;;;;;;4.97;3.53;;;24.40;67.70;25.00;100950.00;;;;5006685;28;20298;-58
2023/08/13 00:43:15;;;;;;;5.40;3.63;;;24.40;67.70;25.00;100949.00;;;;5006731;28;20661;-57
2023/08/13 00:45:41;;;;;;;5.93;3.53;;;24.40;67.80;24.90;100949.00;;;;5008397;28;20190;-58
2023/08/13 00:48:07;;;;;;;4.55;3.70;;;24.40;67.90;24.90;100947.00;;;;4990945;28;20186;-57
2023/08/13 00:50:33;;;;;;;4.22;3.45;;;24.40;68.00;24.90;100907.00;;;;5006765;28;20273;-57
2023/08/13 00:52:59;;;;;;;3.58;3.28;;;24.30;67.80;24.90;100964.00;;;;5007041;28;20175;-57
2023/08/13 00:55:25;;;;;;;5.20;3.47;;;24.30;67.90;24.90;100963.00;;;;4990782;28;20210;-57
2023/08/13 00:57:50;;;;;;;3.85;3.40;;;24.30;67.90;24.90;100960.00;;;;5008205;28;20183;-58
2023/08/13 01:00:17;;;;;;;3.92;3.33;;;24.30;67.90;24.60;100968.00;;;;5007801;28;20257;-58
2023/08/13 01:02:43;;;;;;;5.05;3.33;;;24.30;67.80;24.80;100963.00;;;;5008100;28;20172;-57
2023/08/13 01:05:09;;;;;;;4.88;3.65;;;24.30;67.80;24.80;100975.00;;;;5008033;28;20197;-58
2023/08/13 01:08:05;;;;;;;3.72;3.20;;;24.30;67.90;24.80;100968.00;;;;5008051;28;20195;-57
2023/08/13 01:10:35;;;;;;;3.50;3.20;;;24.30;68.20;24.80;100963.00;;;;4996351;28;20237;-58
2023/08/13 01:13:14;;;;;;;3.88;3.50;;;24.20;68.30;24.80;100969.00;;;;5010226;28;20541;-57
2023/08/13 01:15:41;;;;;;;4.30;3.30;;;24.20;68.40;24.70;100898.00;;;;4991490;28;20187;-61
2023/08/13 01:18:07;;;;;;;3.78;3.35;;;24.20;68.50;24.70;100967.00;;;;4990256;28;20286;-58
2023/08/13 01:20:39;;;;;;;4.00;3.60;;;24.20;68.50;24.70;100963.00;;;;5007631;28;20211;-58
2023/08/13 01:23:04;;;;;;;4.03;3.47;;;24.20;68.50;24.70;100966.00;;;;5006567;28;20191;-59
2023/08/13 01:25:30;;;;;;;4.82;3.65;;;24.10;68.40;24.70;100965.00;;;;5010664;28;20211;-57
2023/08/13 01:28:12;;;;;;;5.63;3.20;;;24.10;68.30;24.70;100975.00;;;;5010216;28;20176;-58
2023/08/13 01:30:52;;;;;;;4.97;3.13;;;24.20;68.50;24.60;100974.00;;;;5006268;28;20805;-58
2023/08/13 01:33:27;;;;;;;6.45;3.60;;;24.10;68.40;24.60;100971.00;;;;5006770;28;20324;-57
2023/08/13 01:35:58;;;;;;;3.42;3.13;;;24.10;68.40;24.60;100961.00;;;;5008056;28;20191;-58
2023/08/13 01:38:24;;;;;;;4.30;3.20;;;24.10;68.50;24.60;100970.00;;;;4991591;28;20618;-58
2023/08/13 01:40:50;;;;;;;5.03;3.20;;;24.10;68.50;24.60;100966.00;;;;5007330;28;20207;-58
2023/08/13 01:43:16;;;;;;;5.13;3.30;;;24.10;68.50;24.60;100972.00;;;;5007901;28;20255;-58
2023/08/13 01:45:42;;;;;;;5.10;3.10;;;24.00;68.40;24.60;100978.00;;;;5007612;28;20265;-58
2023/08/13 01:48:08;;;;;;;4.18;3.10;;;24.10;68.60;24.60;100980.00;;;;5007512;28;20771;-58
2023/08/13 01:50:37;;;;;;;5.32;3.05;;;24.10;68.60;24.50;100972.00;;;;5007284;28;20735;-58
2023/08/13 01:53:02;;;;;;;5.78;3.08;;;24.10;68.60;24.60;100975.00;;;;5007435;28;20179;-57
2023/08/13 01:55:28;;;;;;;3.30;3.00;;;24.10;68.70;24.50;100976.00;;;;5008778;28;20270;-57
2023/08/13 01:57:54;;;;;;;4.45;3.10;;;24.10;68.80;24.50;100976.00;;;;5010923;28;20342;-57
2023/08/13 02:00:20;;;;;;;3.95;3.20;;;24.00;68.60;24.50;100978.00;;;;5010485;28;20227;-57
2023/08/13 02:02:46;;;;;;;4.35;2.90;;;24.00;68.80;24.50;100980.00;;;;5010749;28;20184;-59
2023/08/13 02:05:11;;;;;;;4.55;2.85;;;24.00;68.80;24.50;100979.00;;;;5010218;28;20206;-58
2023/08/13 02:07:37;;;;;;;4.70;3.38;;;24.00;68.90;24.50;100970.00;;;;5010950;28;20369;-58
2023/08/13 02:10:03;;;;;;;3.80;2.90;;;23.90;68.70;24.50;100972.00;;;;5010763;28;20179;-57
2023/08/13 02:12:29;;;;;;;3.72;2.95;;;23.90;68.70;24.50;100982.00;;;;5010995;28;20634;-58
2023/08/13 02:14:54;;;;;;;4.80;3.00;;;24.00;68.90;24.50;100974.00;;;;5010747;28;20253;-56
2023/08/13 02:17:20;;;;;;;4.70;3.07;;;24.00;68.80;24.40;100969.00;;;;5010781;28;20215;-58
2023/08/13 02:19:46;;;;;;;3.42;3.05;;;23.90;68.80;24.20;100954.00;;;;5010312;28;20188;-59
2023/08/13 02:22:12;;;;;;;3.72;2.88;;;23.90;68.80;24.40;100973.00;;;;5010625;28;20214;-58
2023/08/13 02:24:37;;;;;;;6.18;2.90;;;23.90;69.00;24.40;100968.00;;;;5010581;28;20186;-58
2023/08/13 02:27:03;;;;;;;4.90;3.10;;;23.90;69.00;24.40;100963.00;;;;5010552;28;20176;-58
2023/08/13 02:29:29;;;;;;;4.63;2.90;;;23.90;69.10;24.40;100971.00;;;;5010529;28;20172;-58
2023/08/13 02:31:55;;;;;;;3.42;2.90;;;23.90;69.10;24.40;100971.00;;;;5010049;28;20206;-58
2023/08/13 02:34:22;;;;;;;5.77;3.17;;;23.90;69.10;24.40;100960.00;;;;5010499;28;20171;-57
2023/08/13 02:36:48;;;;;;;5.13;3.10;;;23.80;68.90;24.30;100966.00;;;;5009058;28;20266;-57
2023/08/13 02:39:14;;;;;;;3.13;2.80;;;23.90;69.10;24.30;100958.00;;;;5010266;28;20258;-58
2023/08/13 02:41:39;;;;;;;3.13;2.78;;;23.80;68.90;24.30;100967.00;;;;5008520;28;20673;-58
2023/08/13 02:44:05;;;;;;;3.20;2.70;;;23.80;69.00;24.30;100966.00;;;;5010252;28;20229;-56
2023/08/13 02:46:31;;;;;;;4.10;2.88;;;23.80;69.10;24.30;100961.00;;;;5010190;28;20179;-57
2023/08/13 02:48:57;;;;;;;3.90;2.83;;;23.80;69.10;24.30;100964.00;;;;5010178;28;20614;-57
2023/08/13 02:51:23;;;;;;;4.97;2.90;;;23.80;69.20;24.10;100897.00;;;;5009846;28;20246;-58
2023/08/13 02:53:49;;;;;;;5.72;2.70;;;23.80;69.90;24.30;100960.00;;;;5009888;28;20188;-58
2023/08/13 02:56:15;;;;;;;5.13;3.00;;;23.70;69.00;24.30;100971.00;;;;5010017;28;20179;-57
2023/08/13 02:58:41;;;;;;;5.68;3.00;;;23.80;69.20;24.20;100971.00;;;;5009872;28;20180;-57
2023/08/13 03:01:07;;;;;;;3.20;2.40;;;23.70;69.00;24.20;100971.00;;;;5009694;28;20203;-57
2023/08/13 03:03:32;;;;;;;5.38;2.72;;;23.70;69.00;24.20;100964.00;;;;5011459;28;20187;-57
2023/08/13 03:05:58;;;;;;;4.40;2.85;;;23.70;68.90;24.20;100952.00;;;;5010443;28;20601;-57
2023/08/13 03:08:24;;;;;;;3.57;2.60;;;23.70;69.00;24.20;100955.00;;;;5010862;28;20254;-58
2023/08/13 03:10:50;;;;;;;3.70;2.80;;;23.70;68.90;24.20;100952.00;;;;5010588;28;20253;-57
2023/08/13 03:13:15;;;;;;;4.67;3.17;;;23.70;69.00;24.20;100950.00;;;;5010989;28;20183;-57
2023/08/13 03:15:41;;;;;;;4.67;2.70;;;23.70;68.80;24.10;100956.00;;;;5010943;28;20195;-56
2023/08/13 03:18:07;;;;;;;3.53;2.80;;;23.60;68.80;24.10;100952.00;;;;5013300;28;20192;-58
2023/08/13 03:20:33;;;;;;;4.45;2.83;;;23.70;68.80;24.10;100953.00;;;;5015412;28;20283;-58
2023/08/13 03:22:59;;;;;;;4.25;3.30;;;23.60;68.70;24.10;100949.00;;;;5010985;28;20271;-57
2023/08/13 03:25:25;;;;;;;8.83;3.07;;;23.60;68.70;24.10;100953.00;;;;5011269;28;20260;-57
2023/08/13 03:27:51;;;;;;;3.60;2.70;;;23.60;68.70;24.10;100961.00;;;;5009892;28;20644;-58
2023/08/13 03:30:16;;;;;;;3.30;2.80;;;23.60;68.70;24.10;100956.00;;;;5010454;28;20551;-59
2023/08/13 03:32:42;;;;;;;2.77;2.57;;;23.60;68.80;24.00;100956.00;;;;5012398;28;20737;-58
2023/08/13 03:35:08;;;;;;;3.67;2.70;;;23.60;69.10;24.00;100953.00;;;;5016649;28;20192;-58
2023/08/13 03:37:34;;;;;;;4.53;2.83;;;23.60;68.90;24.00;100957.00;;;;5013334;28;20190;-59
2023/08/13 03:39:59;;;;;;;3.20;2.73;;;23.50;68.60;24.00;100953.00;;;;5010266;28;20242;-59
2023/08/13 03:42:25;;;;;;;3.03;2.77;;;23.60;68.90;24.00;100953.00;;;;5010587;28;20191;-58
2023/08/13 03:44:51;;;;;;;3.13;2.83;;;23.50;68.70;24.00;100942.00;;;;5010165;28;20246;-58
2023/08/13 03:47:17;;;;;;;4.37;2.90;;;23.50;68.60;24.00;100954.00;;;;5010529;28;20187;-58
2023/08/13 03:49:42;;;;;;;3.13;2.83;;;23.50;68.50;24.00;100950.00;;;;5010130;28;20176;-58
2023/08/13 03:52:11;;;;;;;5.87;3.90;;;23.50;68.50;23.90;100967.00;;;;5010313;28;20832;-58
2023/08/13 03:54:36;;;;;;;4.13;3.70;;;23.50;68.50;23.90;100954.00;;;;5010184;28;20175;-58
2023/08/13 03:57:02;;;;;;;5.30;3.40;;;23.50;68.40;23.90;100957.00;;;;5010301;28;20199;-58
2023/08/13 03:59:28;;;;;;;3.23;2.93;;;23.50;68.20;23.90;100957.00;;;;5008904;28;20555;-58
2023/08/13 04:01:54;;;;;;;5.20;3.17;;;23.40;68.10;23.90;100957.00;;;;5009251;28;20234;-58
2023/08/13 04:04:19;;;;;;;4.00;3.00;;;23.40;68.20;23.90;100965.00;;;;5009947;28;20662;-58
2023/08/13 04:06:45;;;;;;;5.33;2.93;;;23.40;67.90;23.80;100954.00;;;;5009606;28;20740;-58
2023/08/13 04:09:11;;;;;;;3.47;2.80;;;23.40;67.80;23.80;100957.00;;;;5009792;28;20199;-58
2023/08/13 04:11:37;;;;;;;4.00;3.10;;;23.40;67.80;23.80;100964.00;;;;5009545;28;20688;-59
2023/08/13 04:14:03;;;;;;;3.73;3.03;;;23.40;67.60;23.80;100958.00;;;;5009690;28;20179;-58
2023/08/13 04:16:28;;;;;;;3.27;2.77;;;23.40;67.70;23.80;100956.00;;;;5003878;28;20191;-58
2023/08/13 04:18:54;;;;;;;3.93;3.00;;;23.30;67.50;23.80;100962.00;;;;5008440;28;20195;-58
2023/08/13 04:21:20;;;;;;;3.27;2.80;;;23.30;67.50;23.80;100958.00;;;;5008988;28;20215;-58
2023/08/13 04:23:46;;;;;;;3.10;2.80;;;23.30;67.50;23.70;100959.00;;;;5009518;28;20600;-58
2023/08/13 04:26:11;;;;;;;3.07;2.77;;;23.30;67.50;23.70;100964.00;;;;5009354;28;20175;-58
2023/08/13 04:28:37;;;;;;;3.27;2.83;;;23.30;67.50;23.70;100956.00;;;;5008245;28;20179;-58
2023/08/13 04:31:03;;;;;;;4.07;2.77;;;23.20;68.20;23.70;100963.00;;;;5007566;28;20207;-58
2023/08/13 04:33:28;;;;;;;2.87;2.60;;;23.30;67.50;23.70;100970.00;;;;5009316;28;20237;-59
2023/08/13 04:35:54;;;;;;;3.43;2.90;;;23.20;67.40;23.70;100976.00;;;;5008677;28;20677;-59
2023/08/13 04:38:20;;;;;;;4.03;2.70;;;23.20;67.40;23.70;100972.00;;;;5007584;28;20190;-59
2023/08/13 04:40:49;;;;;;;4.10;3.00;;;23.20;67.40;23.60;100964.00;;;;5007381;28;20211;-58
2023/08/13 04:43:16;;;;;;;3.80;3.30;;;23.20;67.40;23.60;100972.00;;;;5008949;28;20258;-59
2023/08/13 04:45:46;;;;;;;4.53;2.80;;;23.20;67.40;23.60;100979.00;;;;5008860;28;20187;-57
2023/08/13 04:48:38;;;;;;;4.13;2.80;;;23.20;67.40;23.60;100979.00;;;;5008703;28;20190;-58
2023/08/13 04:51:04;;;;;;;3.13;2.80;;;23.20;67.40;23.60;100976.00;;;;5008093;28;20207;-58
2023/08/13 04:53:30;;;;;;;4.73;2.70;;;23.20;67.50;23.60;100974.00;;;;5008716;28;20195;-59
2023/08/13 04:55:55;;;;;;;2.83;2.63;;;23.10;67.30;23.50;100973.00;;;;5007581;28;20417;-58
2023/08/13 04:58:21;;;;;;;3.10;2.80;;;23.10;67.30;23.60;100978.00;;;;5008351;28;20183;-58
2023/08/13 05:00:47;;;;;;;4.90;3.20;;;23.10;67.50;23.50;100969.00;;;;5007093;28;20313;-57
2023/08/13 05:03:12;;;;;;;4.67;2.70;;;23.10;67.50;23.50;100975.00;;;;5008977;28;20778;-58
2023/08/13 05:05:38;;;;;;;4.50;3.10;;;23.10;67.60;23.50;100969.00;;;;5008873;28;20179;-58
2023/08/13 05:08:04;;;;;;;3.67;2.90;;;23.10;67.80;23.50;100979.00;;;;5008574;28;20219;-57
2023/08/13 05:10:30;;;;;;;3.27;2.90;;;23.10;67.60;23.50;100970.00;;;;5007408;28;20619;-58
2023/08/13 05:12:55;;;;;;;5.37;3.00;;;23.10;67.50;23.50;100977.00;;;;5007952;28;20184;-58
2023/08/13 05:15:21;;;;;;;4.13;2.73;;;23.10;67.50;23.50;100970.00;;;;5008527;28;20737;-58
2023/08/13 05:17:47;;;;;;;3.30;3.00;;;23.00;67.50;23.50;100973.00;;;;5008721;28;20207;-58
2023/08/13 05:20:13;;;;;;;6.37;2.83;;;23.00;67.60;23.50;100967.00;;;;5014432;28;20238;-59
2023/08/13 05:22:38;;;;;;;3.60;2.87;;;23.10;67.80;23.40;100972.00;;;;5005921;28;20203;-58
2023/08/13 05:25:05;;;;;;;5.70;2.83;;;23.00;67.80;23.40;100973.00;;;;5008755;28;20205;-58
2023/08/13 05:27:30;;;;;;;3.53;3.10;;;23.00;67.70;23.40;100980.00;;;;5004673;28;20243;-58
2023/08/13 05:29:56;;;;;;;4.67;3.93;;;23.00;67.80;23.40;100974.00;;;;5004025;28;20686;-58
2023/08/13 05:32:22;;;;;;;6.23;5.03;;;22.90;67.80;23.40;100979.00;;;;5012420;28;20230;-58
2023/08/13 05:34:48;;;;;;;5.00;3.47;;;23.00;67.90;23.40;100951.00;;;;5001605;28;20322;-58
2023/08/13 05:37:14;;;;;;;5.07;3.30;;;22.90;68.00;23.40;100966.00;;;;5011348;28;20207;-58
2023/08/13 05:39:39;;;;;;;4.17;3.20;;;22.90;67.90;23.40;100970.00;;;;5012151;28;20289;-58
2023/08/13 05:42:05;;;;;;;5.97;3.07;;;22.90;68.00;23.30;100960.00;;;;5011167;28;20195;-58
2023/08/13 05:44:31;;;;;;;6.43;3.30;;;22.90;68.20;23.40;100974.00;;;;5005639;28;20297;-57
2023/08/13 05:46:57;;;;;;;3.47;2.90;;;22.90;68.10;23.40;100966.00;;;;5011583;28;20219;-58
2023/08/13 05:49:23;;;;;;;3.50;3.10;;;22.90;68.20;23.30;100972.00;;;;5011246;28;20179;-58
2023/08/13 05:51:48;;;;;;;4.77;3.00;;;22.90;68.30;23.30;100970.00;;;;5013954;28;20210;-57
2023/08/13 05:54:15;;;;;;;3.20;2.90;;;22.80;68.30;23.30;100960.00;;;;5012057;28;20318;-58
2023/08/13 05:56:40;;;;;;;4.17;2.90;;;22.80;68.40;23.30;100970.00;;;;5010828;28;20274;-58
2023/08/13 05:59:06;;;;;;;4.43;2.90;;;22.90;68.40;23.30;100977.00;;;;5011453;28;20383;-58
2023/08/13 06:01:32;;;;;;;7.67;2.90;;;22.80;68.30;23.30;100967.00;;;;5009575;28;20364;-58
2023/08/13 06:03:59;;;;;;;3.73;2.73;;;22.80;68.40;23.30;100986.00;;;;5011756;28;20179;-58
2023/08/13 06:06:25;;;;;;;3.73;2.80;;;22.80;68.40;23.30;100985.00;;;;5010785;28;20692;-58
2023/08/13 06:08:50;;;;;;;3.90;2.70;;;22.80;68.50;23.30;100989.00;;;;5013201;28;20175;-58
2023/08/13 06:11:16;;;;;;;3.33;2.67;;;22.80;68.60;23.30;100985.00;;;;5011452;28;20682;-58
2023/08/13 06:13:42;;;;;;;5.33;2.70;;;22.80;68.60;23.20;100985.00;;;;5010518;28;20168;-57
2023/08/13 06:16:08;;;;;;;3.10;2.80;;;22.80;68.70;23.20;100984.00;;;;5011892;28;20191;-57
2023/08/13 06:18:36;;;;;;;5.00;2.80;;;22.80;68.60;23.20;100980.00;;;;5011114;28;20270;-57
2023/08/13 06:21:03;;;;;;;5.83;2.90;;;22.80;68.80;23.10;100987.00;;;;5009741;28;20207;-57
2023/08/13 06:23:30;;;;;;;4.30;2.67;;;22.70;68.70;23.20;100982.00;;;;5011192;28;20226;-58
2023/08/13 06:25:56;;;;;;;3.40;2.77;;;22.70;68.80;23.20;100978.00;;;;5011405;28;20225;-58
2023/08/13 06:28:22;;;;;;;4.17;2.80;;;22.70;68.90;23.20;100973.00;;;;5010796;28;20325;-59
2023/08/13 06:30:47;;;;;;;3.37;2.87;;;22.80;69.10;23.20;100972.00;;;;5010915;28;20282;-58
2023/08/13 06:33:13;;;;;;;4.03;3.00;;;22.80;69.30;23.20;100971.00;;;;5011219;28;20318;-57
2023/08/13 06:35:44;;;;;;;5.67;2.90;;;22.70;69.30;23.20;100967.00;;;;5009977;28;20182;-57
2023/08/13 06:38:09;;;;;;;4.77;2.70;;;22.80;69.60;23.20;100979.00;;;;5009724;28;20230;-57
2023/08/13 06:40:35;;;;;;;4.30;3.00;;;22.70;69.40;23.20;100972.00;;;;5009899;28;20219;-58
2023/08/13 06:43:01;;;;;;;3.40;2.80;;;22.70;69.60;23.20;100967.00;;;;5010190;28;20174;-58
2023/08/13 06:45:27;;;;;;;2.77;2.57;;;22.70;69.60;23.10;100973.00;;;;5010886;28;20178;-57
2023/08/13 06:47:55;;;;;;;3.33;2.80;;;22.70;69.60;23.10;100982.00;;;;5009253;28;20270;-57
2023/08/13 06:50:21;;;;;;;5.53;2.90;;;22.70;69.60;23.10;100976.00;;;;5010919;28;20210;-58
2023/08/13 06:52:47;;;;;;;4.50;2.97;;;22.70;69.90;23.10;100982.00;;;;5010836;28;20254;-57
2023/08/13 06:55:12;;;;;;;3.30;2.57;;;22.70;70.00;23.10;100977.00;;;;5010735;28;20314;-57
2023/08/13 06:57:38;;;;;;;5.30;3.10;;;22.70;70.00;23.10;100981.00;;;;5010195;28;20981;-58
2023/08/13 07:00:05;;;;;;;4.33;2.73;;;22.70;70.10;23.10;100978.00;;;;5010422;28;20187;-57
2023/08/13 07:02:31;;;;;;;4.17;2.67;;;22.70;70.20;23.10;100978.00;;;;5010570;28;21777;-58
2023/08/13 07:04:57;;;;;;;3.87;2.73;;;22.70;70.30;23.10;100976.00;;;;5010553;28;20171;-58
2023/08/13 07:07:22;;;;;;;3.87;2.90;;;22.70;70.50;23.10;100971.00;;;;5009136;28;20175;-58
2023/08/13 07:09:48;;;;;;;5.37;3.00;;;22.60;70.60;23.10;100969.00;;;;5010289;28;20194;-57
2023/08/13 07:12:14;;;;;;;3.33;2.80;;;22.70;70.90;23.10;100979.00;;;;5010651;28;20203;-57
2023/08/13 07:14:40;;;;;;;3.83;2.90;;;22.60;70.70;23.00;100975.00;;;;5010420;28;20175;-57
2023/08/13 07:17:06;;;;;;;3.57;2.90;;;22.60;70.90;23.00;100976.00;;;;5007327;28;20219;-57
2023/08/13 07:19:33;;;;;;;4.10;2.93;;;22.60;71.00;23.00;100969.00;;;;5009103;28;20202;-57
2023/08/13 07:21:58;;;;;;;4.00;2.50;;;22.70;71.10;23.00;100963.00;;;;5010104;28;20207;-58
2023/08/13 07:24:24;;;;;;;6.10;2.93;;;22.60;71.00;23.00;100972.00;;;;5015777;28;20210;-58
2023/08/13 07:26:50;;;;;;;3.37;3.07;;;22.70;71.70;23.00;100968.00;;;;5015056;28;20608;-58
2023/08/13 07:29:16;;;;;;;4.83;3.07;;;22.70;71.90;23.00;100971.00;;;;5009567;28;20176;-57
2023/08/13 07:31:42;;;;;;;3.83;3.10;;;22.60;71.70;23.00;100975.00;;;;5007822;28;20283;-58
2023/08/13 07:34:08;;;;;;;4.10;3.63;;;22.60;72.00;23.00;100972.00;;;;5009668;28;20194;-58
2023/08/13 07:36:33;;;;;;;5.30;3.50;;;22.60;72.20;23.00;100972.00;;;;5009640;28;20180;-59
2023/08/13 07:38:59;;;;;;;3.73;3.33;;;22.60;72.20;23.00;100980.00;;;;5014077;28;20190;-58
2023/08/13 07:41:25;;;;;;;5.47;3.70;;;22.60;72.10;23.00;100972.00;;;;5013582;28;20215;-58
2023/08/13 07:43:51;;;;;;;3.77;3.20;;;22.60;72.30;23.00;100976.00;;;;5010195;28;20218;-59
2023/08/13 07:46:16;;;;;;;3.23;2.93;;;22.50;72.10;23.00;100979.00;;;;5009561;28;20712;-59
2023/08/13 07:48:42;;;;;;;4.50;3.30;;;22.60;72.20;22.90;100973.00;;;;5009134;28;20180;-59
2023/08/13 07:51:08;;;;;;;4.53;3.23;;;22.50;72.20;23.00;100983.00;;;;5008925;28;20253;-59
2023/08/13 07:53:34;;;;;;;6.73;3.40;;;22.50;72.20;22.90;100985.00;;;;5008152;28;20184;-57
2023/08/13 07:56:00;;;;;;;3.97;3.20;;;22.50;72.20;23.00;100984.00;;;;5008391;28;20237;-58
2023/08/13 07:58:25;;;;;;;3.67;3.27;;;22.40;72.40;23.00;100993.00;;;;5007686;28;20180;-58
2023/08/13 08:00:51;;;;;;;5.10;3.60;;;22.40;72.30;23.00;100972.00;;;;5007623;28;20298;-59
2023/08/13 08:03:17;;;;;;;4.80;3.13;;;22.50;72.20;23.00;100978.00;;;;5008303;28;20172;-58
2023/08/13 08:05:47;;;;;;;5.83;3.80;;;22.50;72.10;23.00;100976.00;;;;5008927;28;20179;-58
2023/08/13 08:08:13;;;;;;;6.60;3.70;;;22.50;72.10;22.90;100905.00;;;;5008750;28;20187;-59
2023/08/13 08:10:39;;;;;;;3.90;3.20;;;22.50;72.00;22.90;100985.00;;;;5008331;28;20207;-59
2023/08/13 08:13:05;;;;;;;5.20;3.57;;;22.50;72.10;22.90;100980.00;;;;5009321;28;20187;-58
2023/08/13 08:15:31;;;;;;;5.77;3.60;;;22.50;72.00;22.90;100977.00;;;;5008917;28;20669;-59
2023/08/13 08:17:56;;;;;;;6.00;3.43;;;22.50;71.70;22.90;100977.00;;;;5008468;28;20196;-58
2023/08/13 08:20:23;;;;;;;5.80;3.37;;;22.50;71.70;22.90;100980.00;;;;5008366;28;20223;-59
2023/08/13 08:22:49;;;;;;;3.53;2.80;;;22.50;71.70;22.90;100974.00;;;;5008717;28;20657;-58
2023/08/13 08:25:15;;;;;;;5.23;3.23;;;22.50;71.30;22.90;100965.00;;;;5008957;28;20192;-58
2023/08/13 08:27:41;;;;;;;4.70;3.20;;;22.40;71.50;22.90;100961.00;;;;5008834;28;20197;-58
2023/08/13 08:30:07;;;;;;;5.20;3.43;;;22.40;71.70;22.90;100963.00;;;;5008321;28;20661;-57
2023/08/13 08:32:33;;;;;;;7.43;3.30;;;22.50;71.70;23.00;100965.00;;;;5008545;28;20211;-58
2023/08/13 08:34:59;;;;;;;7.90;3.33;;;22.50;71.80;23.00;100953.00;;;;5008590;28;20183;-59
2023/08/13 08:37:25;;;;;;;5.07;3.00;;;22.50;72.00;23.00;100947.00;;;;5008737;28;20234;-58
2023/08/13 08:39:51;;;;;;;7.43;3.33;;;22.50;71.90;23.00;100956.00;;;;5008265;28;20191;-58
2023/08/13 08:42:17;;;;;;;6.80;3.17;;;22.50;71.80;23.10;100954.00;;;;5008828;28;20905;-58
2023/08/13 08:44:43;;;;;;;7.33;3.20;;;22.50;72.00;23.10;100956.00;;;;5008118;28;20264;-58
2023/08/13 08:47:09;;;;;;;5.07;2.93;;;22.60;72.10;23.10;100948.00;;;;5006647;28;20278;-59
2023/08/13 08:49:35;;;;;;;5.50;2.77;;;22.60;72.10;23.10;100948.00;;;;5007958;28;20182;-59
2023/08/13 08:52:01;;;;;;;6.27;3.30;;;22.60;73.00;23.20;100951.00;;;;5008617;28;20630;-59
2023/08/13 08:54:26;;;;;;;6.77;3.43;;;22.70;71.80;23.20;100948.00;;;;5008492;28;20187;-59
2023/08/13 08:56:52;;;;;;;4.27;2.93;;;22.60;72.10;23.10;100961.00;;;;5007904;28;20664;-58
2023/08/13 08:59:18;;;;;;;6.00;2.97;;;22.50;72.60;23.10;100953.00;;;;5007701;28;20253;-59
2023/08/13 09:01:44;;;;;;;4.53;2.80;;;22.40;72.70;23.10;100955.00;;;;5008129;28;20227;-58
2023/08/13 09:04:10;;;;;;;3.87;2.93;;;22.50;72.70;23.20;100958.00;;;;5009610;28;20211;-58
2023/08/13 09:07:03;;;;;;;3.80;2.70;;;22.60;72.20;23.20;100958.00;;;;5012504;28;20258;-59
2023/08/13 09:09:29;;;;;;;5.90;3.07;;;22.60;71.80;23.20;100948.00;;;;5007892;28;20254;-58
2023/08/13 09:11:55;;;;;;;4.70;3.00;;;22.60;71.80;23.30;100946.00;;;;5012155;28;20203;-58
2023/08/13 09:14:21;;;;;;;5.03;2.90;;;22.70;71.80;23.30;100949.00;;;;5012082;28;20666;-58
2023/08/13 09:16:51;;;;;;;3.93;2.73;;;22.70;71.60;23.30;100939.00;;;;5012028;28;20179;-57
2023/08/13 09:19:18;;;;;;;3.30;2.30;;;22.70;71.50;23.30;100949.00;;;;5012000;28;20254;-58
2023/08/13 09:22:00;;;;;;;3.20;2.40;;;22.70;71.50;23.30;100949.00;;;;5012085;28;20219;-58
2023/08/13 09:24:41;;;;;;;4.07;2.90;;;22.70;71.40;23.30;100942.00;;;;5011034;28;20179;-59
2023/08/13 09:27:08;;;;;;;2.97;2.47;;;22.70;71.10;23.30;100946.00;;;;5013246;28;20184;-59
2023/08/13 09:29:35;;;;;;;3.70;2.60;;;22.70;70.80;23.40;100941.00;;;;5022206;28;20187;-60
2023/08/13 09:32:01;;;;;;;4.43;2.73;;;22.80;70.70;23.40;100939.00;;;;5008970;28;20199;-59
2023/08/13 09:34:27;;;;;;;3.57;2.70;;;22.80;70.60;23.40;100934.00;;;;5012160;28;20218;-59
2023/08/13 09:36:54;;;;;;;3.77;2.37;;;22.80;70.40;23.40;100928.00;;;;5011402;28;20183;-57
2023/08/13 09:39:23;;;;;;;4.57;2.80;;;22.70;70.00;23.40;100930.00;;;;5010815;28;20191;-59
2023/08/13 09:41:49;;;;;;;3.10;2.40;;;22.70;69.60;23.40;100926.00;;;;5012302;28;20701;-58
2023/08/13 09:44:16;;;;;;;4.13;2.80;;;22.70;69.20;23.40;100923.00;;;;5021536;28;20190;-58
2023/08/13 09:46:41;;;;;;;9.47;3.00;;;22.70;69.20;23.40;100914.00;;;;5013998;28;20199;-57
2023/08/13 09:49:11;;;;;;;8.83;3.10;;;22.70;70.30;23.40;100897.00;;;;5010262;28;20183;-57
2023/08/13 09:51:38;;;;;;;5.17;2.90;;;22.70;70.00;23.50;100904.00;;;;4994443;28;20270;-58
2023/08/13 09:54:29;;;;;;;6.63;2.97;;;22.80;70.30;23.50;100907.00;;;;5010873;28;20649;-57
2023/08/13 09:57:03;;;;;;;5.13;2.80;;;22.80;70.30;23.50;100904.00;;;;5009715;28;20195;-58
2023/08/13 09:59:30;;;;;;;4.43;2.53;;;22.80;70.30;23.60;100904.00;;;;5009751;28;20190;-58
2023/08/13 10:01:56;;;;;;;4.87;2.97;;;22.90;70.20;23.60;100905.00;;;;4977883;28;20662;-58
2023/08/13 10:04:22;;;;;;;4.93;2.73;;;22.80;69.40;23.60;100902.00;;;;5010505;28;20221;-58
2023/08/13 10:06:50;;;;;;;4.83;2.80;;;22.90;69.00;23.60;100898.00;;;;5009398;28;20180;-58
2023/08/13 10:09:16;;;;;;;4.53;2.70;;;22.80;68.90;23.60;100893.00;;;;4993929;28;20219;-58
2023/08/13 10:11:42;;;;;;;4.93;3.07;;;22.80;69.20;23.60;100896.00;;;;5008902;28;20203;-58
2023/08/13 10:14:08;;;;;;;3.60;2.37;;;22.90;68.60;23.60;100894.00;;;;5010976;28;20187;-58
2023/08/13 10:16:34;;;;;;;4.27;2.70;;;22.80;68.60;23.60;100904.00;;;;4990688;28;20186;-58
2023/08/13 10:19:00;;;;;;;4.77;2.50;;;22.90;68.60;23.70;100906.00;;;;5009747;28;20286;-58
2023/08/13 10:21:36;;;;;;;4.20;2.60;;;22.90;69.00;23.70;100899.00;;;;5010603;28;20208;-57
2023/08/13 10:24:03;;;;;;;4.47;2.80;;;22.90;69.30;23.70;100900.00;;;;5010280;28;20175;-59
2023/08/13 10:26:29;;;;;;;5.00;2.80;;;22.90;69.20;23.70;100900.00;;;;5010151;28;20241;-59
2023/08/13 10:28:55;;;;;;;4.17;2.60;;;23.00;69.30;23.80;100849.00;;;;5009908;28;20642;-58
2023/08/13 10:31:27;;;;;;;2.90;2.30;;;23.00;69.50;23.80;100897.00;;;;5008935;28;20211;-58
2023/08/13 10:34:11;;;;;;;6.37;2.60;;;23.00;69.20;23.80;100899.00;;;;5010790;28;20195;-59
2023/08/13 10:36:57;;;;;;;4.00;2.77;;;23.00;68.90;23.80;100888.00;;;;5006003;28;20191;-59
2023/08/13 10:39:36;;;;;;;4.33;2.70;;;23.00;69.10;23.80;100886.00;;;;5009238;28;20192;-58
2023/08/13 10:42:36;;;;;;;4.23;2.63;;;23.00;69.20;23.80;100899.00;;;;5010780;28;20226;-59
2023/08/13 10:45:05;;;;;;;4.87;2.67;;;23.00;69.00;23.80;100890.00;;;;5007973;28;20195;-59
2023/08/13 10:47:57;;;;;;;4.33;2.60;;;23.00;68.60;23.80;100886.00;;;;5010460;28;20214;-58